Time;durP1;ratioP1;P1;durP2;ratioP2;P2;SDS_P1;SDS_P2;PMS_P1;PMS_P2;Temp;Humidity;BMP_temperature;BMP_pressure;BME280_temperature;BME280_humidity;BME280_pressure;Samples;Min_cycle;Max_cycle;Signal;HPM_P1;HPM_P2
2022/05/10 00:00:47;;;;;;;21.75;15.75;;;;;;;15.77;70.43;101921.50;5095011;28;20063;-66
2022/05/10 00:03:12;;;;;;;20.50;15.57;;;;;;;15.75;70.93;101925.97;5094757;28;20492;-66
2022/05/10 00:05:41;;;;;;;24.10;16.42;;;;;;;15.60;71.31;101913.00;5095000;28;20039;-66
2022/05/10 00:08:09;;;;;;;22.83;16.20;;;;;;;15.68;70.30;101918.16;5094940;28;20028;-66
2022/05/10 00:10:36;;;;;;;21.63;16.05;;;;;;;15.63;70.82;101926.16;5094729;28;20039;-65
2022/05/10 00:13:02;;;;;;;21.70;16.27;;;;;;;15.63;70.89;101928.78;5094775;28;20059;-66
2022/05/10 00:15:27;;;;;;;21.42;16.45;;;;;;;15.57;72.11;101921.88;5094487;28;20040;-65
2022/05/10 00:17:53;;;;;;;22.13;16.52;;;;;;;15.58;71.89;101920.97;5094789;28;20020;-66
2022/05/10 00:20:21;;;;;;;19.90;16.13;;;;;;;15.53;71.74;101917.50;5094962;28;20090;-66
2022/05/10 00:22:47;;;;;;;21.48;16.65;;;;;;;15.51;71.57;101914.00;5094646;28;20066;-66
2022/05/10 00:25:16;;;;;;;22.42;16.77;;;;;;;15.53;72.19;101911.34;5094636;28;20024;-66
2022/05/10 00:27:41;;;;;;;27.33;18.10;;;;;;;15.46;72.18;101901.78;5094452;28;20093;-66
2022/05/10 00:30:08;;;;;;;21.35;16.40;;;;;;;15.44;72.47;101903.56;5094665;28;20213;-66
2022/05/10 00:32:36;;;;;;;24.63;17.15;;;;;;;15.37;72.77;101897.53;5095991;28;20435;-66
2022/05/10 00:35:04;;;;;;;21.85;16.90;;;;;;;15.27;73.09;101891.53;5080590;28;20324;-67
2022/05/10 00:37:29;;;;;;;23.50;17.90;;;;;;;15.29;73.16;101895.03;5098610;28;20032;-67
2022/05/10 00:39:54;;;;;;;26.08;17.60;;;;;;;15.24;72.87;101894.22;5098278;28;20028;-66
2022/05/10 00:42:44;;;;;;;24.05;18.17;;;;;;;15.23;73.17;101896.91;5098682;28;20043;-67
2022/05/10 00:45:25;;;;;;;23.95;18.08;;;;;;;15.22;72.93;101889.88;5077267;28;20059;-67
2022/05/10 00:48:10;;;;;;;23.75;17.50;;;;;;;15.24;72.69;101888.94;5095525;28;20115;-67
2022/05/10 00:50:44;;;;;;;28.45;18.88;;;;;;;15.22;73.35;101889.88;5098125;28;20039;-66
2022/05/10 00:53:36;;;;;;;24.27;18.10;;;;;;;15.22;72.55;101881.97;5098327;28;20406;-67
2022/05/10 00:56:12;;;;;;;;;;;;;;;15.29;70.91;101891.50;5098914;28;20028;-67
2022/05/10 00:58:42;;;;;;;24.25;18.05;;;;;;;15.12;72.46;101885.63;5098606;28;19912;-66
2022/05/10 01:01:09;;;;;;;25.40;18.55;;;;;;;15.05;73.33;101881.38;5098220;28;20039;-66
2022/05/10 01:03:41;;;;;;;22.67;17.55;;;;;;;14.96;73.16;101874.47;5097928;28;20028;-66
2022/05/10 01:06:20;;;;;;;25.90;18.00;;;;;;;14.93;73.30;101880.63;5098051;28;20107;-66
2022/05/10 01:09:01;;;;;;;22.88;17.83;;;;;;;14.92;73.98;101878.91;5097809;28;20035;-66
2022/05/10 01:11:33;;;;;;;24.35;18.55;;;;;;;14.87;74.94;101871.97;5098212;28;20043;-66
2022/05/10 01:14:09;;;;;;;24.58;18.23;;;;;;;14.85;74.84;101864.09;5097738;28;20028;-66
2022/05/10 01:16:34;;;;;;;26.70;18.85;;;;;;;14.85;75.03;101868.47;5097714;28;20020;-66
2022/05/10 01:18:59;;;;;;;28.58;19.25;;;;;;;14.80;75.57;101863.28;5098054;28;20050;-65
2022/05/10 01:22:01;;;;;;;27.25;19.08;;;;;;;14.81;74.12;101857.09;5097445;28;20036;-66
2022/05/10 01:24:41;;;;;;;29.33;18.75;;;;;;;14.83;74.82;101868.50;5097417;28;20483;-67
2022/05/10 01:27:25;;;;;;;27.15;18.85;;;;;;;14.74;75.63;101851.94;5097419;28;20032;-66
2022/05/10 01:29:59;;;;;;;26.45;18.55;;;;;;;14.79;75.01;101851.00;5097494;28;20048;-67
2022/05/10 01:35:21;;;;;;;24.38;18.73;;;;;;;14.80;74.86;101844.81;5097226;28;20069;-66
2022/05/10 01:37:51;;;;;;;29.13;19.08;;;;;;;14.74;75.64;101844.03;5097410;28;20028;-66
2022/05/10 01:40:29;;;;;;;24.90;18.17;;;;;;;14.69;75.60;101838.84;5097008;28;20058;-66
2022/05/10 01:43:01;;;;;;;25.00;18.50;;;;;;;14.65;75.51;101849.44;5097048;28;20028;-65
2022/05/10 01:45:42;;;;;;;25.60;18.48;;;;;;;14.60;75.90;101837.22;5096245;28;20419;-66
2022/05/10 01:48:12;;;;;;;25.48;18.75;;;;;;;14.59;76.65;101839.84;5097229;28;20063;-65
2022/05/10 01:50:48;;;;;;;26.23;18.50;;;;;;;14.57;76.62;101839.00;5096914;28;20040;-65
2022/05/10 01:53:18;;;;;;;23.90;18.98;;;;;;;14.55;76.94;101827.63;5097147;28;20034;-66
2022/05/10 01:55:47;;;;;;;23.85;19.23;;;;;;;14.54;76.36;101824.16;5096819;28;20036;-65
2022/05/10 01:58:19;;;;;;;24.80;19.38;;;;;;;14.57;76.48;101828.47;5097069;28;20020;-65
2022/05/10 02:00:55;;;;;;;29.77;19.20;;;;;;;14.54;76.48;101828.53;5097008;28;20032;-65
2022/05/10 02:03:42;;;;;;;29.33;19.58;;;;;;;14.49;76.48;101827.72;5097018;28;20119;-67
2022/05/10 02:06:18;;;;;;;25.10;19.00;;;;;;;14.37;77.60;101820.84;5096616;28;20073;-66
2022/05/10 02:09:07;;;;;;;29.27;19.92;;;;;;;14.42;76.94;101821.66;5097097;28;20092;-65
2022/05/10 02:11:40;;;;;;;29.13;19.98;;;;;;;14.34;77.27;101801.56;5096628;28;20503;-65
2022/05/10 02:14:29;;;;;;;29.15;19.88;;;;;;;14.40;76.94;101810.25;5096354;28;20373;-65
2022/05/10 02:17:07;;;;;;;25.65;19.83;;;;;;;14.43;77.45;101812.00;5096654;28;20394;-65
2022/05/10 02:19:52;;;;;;;27.05;19.80;;;;;;;14.38;76.32;101808.50;5096499;28;20040;-67
2022/05/10 02:22:32;;;;;;;26.80;20.13;;;;;;;14.44;77.07;101805.84;5096554;28;20089;-66
2022/05/10 02:25:04;;;;;;;28.65;19.83;;;;;;;14.41;78.49;101805.88;5096311;28;20028;-66
2022/05/10 02:27:40;;;;;;;29.15;20.88;;;;;;;14.43;78.39;101806.72;5096263;28;20123;-65
2022/05/10 02:30:11;;;;;;;28.88;19.67;;;;;;;14.44;78.53;101798.81;5096032;28;20535;-65
2022/05/10 02:35:35;;;;;;;24.60;19.40;;;;;;;14.49;78.86;101791.72;5096077;28;20151;-66
2022/05/10 02:38:01;;;;;;;25.25;20.55;;;;;;;14.50;78.62;101784.69;5096074;28;20056;-66
2022/05/10 02:40:26;;;;;;;26.35;20.50;;;;;;;14.49;78.99;101783.81;5096073;28;20136;-68
2022/05/10 02:42:51;;;;;;;24.45;20.35;;;;;;;14.47;78.91;101782.97;5096583;28;20039;-66
2022/05/10 02:45:20;;;;;;;27.88;20.13;;;;;;;14.49;79.36;101786.44;5096360;28;20468;-66
2022/05/10 02:47:48;;;;;;;27.20;20.42;;;;;;;14.48;79.02;101781.19;5093565;28;20046;-67
2022/05/10 02:50:27;;;;;;;26.33;20.27;;;;;;;14.44;78.90;101780.38;5096014;28;20028;-65
2022/05/10 02:52:53;;;;;;;25.75;19.95;;;;;;;14.50;77.88;101782.06;5095657;28;20439;-68
2022/05/10 02:55:31;;;;;;;27.65;20.40;;;;;;;14.50;78.12;101772.38;5095387;28;20028;-66
2022/05/10 02:58:00;;;;;;;24.98;19.98;;;;;;;14.46;78.60;101772.44;5095903;28;20042;-65
2022/05/10 03:00:27;;;;;;;25.30;20.00;;;;;;;14.49;78.34;101769.78;5095761;28;20023;-68
2022/05/10 03:02:58;;;;;;;26.85;19.90;;;;;;;14.50;78.05;101767.13;5095752;28;20028;-66
2022/05/10 03:05:23;;;;;;;23.25;18.88;;;;;;;14.52;78.52;101769.75;5095560;28;20024;-66
2022/05/10 03:07:48;;;;;;;27.73;19.52;;;;;;;14.51;77.94;101754.81;5095953;28;20035;-66
2022/05/10 03:10:14;;;;;;;25.65;19.77;;;;;;;14.43;78.58;101741.75;5095474;28;20020;-66
2022/05/10 03:12:39;;;;;;;28.90;19.38;;;;;;;14.49;78.15;101753.97;5095819;28;20094;-65
2022/05/10 03:15:05;;;;;;;25.55;19.05;;;;;;;14.55;78.11;101751.22;5095583;28;20103;-67
2022/05/10 03:17:30;;;;;;;29.80;19.80;;;;;;;14.54;78.34;101752.16;5095666;28;20032;-66
2022/05/10 03:19:56;;;;;;;29.20;19.60;;;;;;;14.52;78.15;101748.66;5095437;28;20085;-66
2022/05/10 03:22:21;;;;;;;29.02;19.70;;;;;;;14.57;77.78;101747.69;5095315;28;20039;-66
2022/05/10 03:24:46;;;;;;;26.10;18.75;;;;;;;14.59;77.73;101748.53;5095306;28;20024;-65
2022/05/10 03:27:18;;;;;;;28.75;18.95;;;;;;;14.55;78.06;101741.56;5095422;28;20316;-68
2022/05/10 03:29:43;;;;;;;28.15;19.60;;;;;;;14.61;78.10;101738.84;5094727;28;20051;-66
2022/05/10 03:32:09;;;;;;;26.33;19.35;;;;;;;14.58;78.57;101740.66;5095366;28;20050;-67
2022/05/10 03:37:18;;;;;;;25.00;19.25;;;;;;;14.48;78.24;101723.25;5095303;28;20092;-66
2022/05/10 03:39:43;;;;;;;27.00;19.13;;;;;;;14.45;79.39;101737.34;5095198;28;20358;-66
2022/05/10 03:42:09;;;;;;;28.77;19.53;;;;;;;14.54;79.04;101738.97;5094922;28;20043;-65
2022/05/10 03:44:35;;;;;;;26.75;19.23;;;;;;;14.47;79.53;101738.19;5095165;28;20262;-66
2022/05/10 03:47:00;;;;;;;24.50;19.45;;;;;;;14.48;79.60;101731.16;5095261;28;20358;-66
2022/05/10 03:49:26;;;;;;;27.73;19.08;;;;;;;14.47;79.63;101722.38;5095002;28;20096;-66
2022/05/10 03:51:53;;;;;;;26.50;18.98;;;;;;;14.43;79.90;101725.09;5094978;28;20036;-66
2022/05/10 03:54:19;;;;;;;25.15;19.35;;;;;;;14.45;80.07;101729.44;5094566;28;20439;-65
2022/05/10 03:56:44;;;;;;;26.90;19.13;;;;;;;14.46;79.56;101730.31;5094874;28;20062;-66
2022/05/10 03:59:09;;;;;;;27.33;19.17;;;;;;;14.44;80.07;101718.94;5095051;28;20416;-66
2022/05/10 04:01:34;;;;;;;26.15;19.10;;;;;;;14.41;80.13;101721.59;5095112;28;20118;-65
2022/05/10 04:04:01;;;;;;;26.15;18.90;;;;;;;14.46;79.78;101718.00;5094742;28;20040;-66
2022/05/10 04:06:26;;;;;;;26.60;19.40;;;;;;;14.45;79.93;101720.66;5094610;28;20090;-66
2022/05/10 04:08:51;;;;;;;24.30;18.45;;;;;;;14.44;79.81;101721.56;5095261;28;20036;-66
2022/05/10 04:11:17;;;;;;;23.77;18.20;;;;;;;14.51;79.62;101712.69;5098966;28;20032;-67
2022/05/10 04:13:43;;;;;;;29.73;18.98;;;;;;;14.53;78.12;101717.03;5099013;28;20501;-65
2022/05/10 04:16:08;;;;;;;27.23;19.45;;;;;;;14.58;78.52;101714.31;5099012;28;20032;-66
2022/05/10 04:18:34;;;;;;;25.08;18.63;;;;;;;14.55;78.80;101707.31;5098811;28;20326;-66
2022/05/10 04:20:59;;;;;;;32.28;19.50;;;;;;;14.60;77.16;101710.75;5098762;28;20445;-65
2022/05/10 04:23:25;;;;;;;32.50;19.38;;;;;;;14.70;75.76;101719.41;5098966;28;20089;-65
2022/05/10 04:25:51;;;;;;;30.08;17.90;;;;;;;14.78;75.28;101709.59;5098959;28;20046;-66
2022/05/10 04:28:16;;;;;;;30.40;18.23;;;;;;;14.76;75.08;101699.97;5098580;28;20074;-61
2022/05/10 04:30:42;;;;;;;30.35;18.70;;;;;;;14.90;74.50;101719.03;5098467;28;20047;-66
2022/05/10 04:33:08;;;;;;;29.58;17.80;;;;;;;14.92;74.02;101702.31;5080660;28;20482;-66
2022/05/10 04:35:33;;;;;;;28.40;18.08;;;;;;;14.98;73.79;101712.75;5098651;28;20040;-66
2022/05/10 04:38:05;;;;;;;28.45;17.17;;;;;;;15.05;73.60;101724.06;5098964;28;20039;-66
2022/05/10 04:43:15;;;;;;;29.98;18.42;;;;;;;15.16;73.18;101710.69;5098801;28;20354;-66
2022/05/10 04:45:41;;;;;;;27.83;17.98;;;;;;;15.15;72.85;101701.03;5098571;28;20028;-66
2022/05/10 04:48:06;;;;;;;29.80;18.58;;;;;;;15.19;72.86;101702.72;5098176;28;20028;-66
2022/05/10 04:50:31;;;;;;;27.55;18.13;;;;;;;15.24;72.76;101701.72;5098439;28;20028;-66
2022/05/10 04:52:57;;;;;;;28.52;18.30;;;;;;;15.27;72.80;101700.78;5098250;28;20035;-66
2022/05/10 04:55:22;;;;;;;26.73;18.08;;;;;;;15.31;72.44;101705.13;5098319;28;20360;-65
2022/05/10 04:57:47;;;;;;;29.80;17.85;;;;;;;15.34;72.01;101699.78;5098113;28;20062;-66
2022/05/10 05:00:14;;;;;;;27.00;18.45;;;;;;;15.37;71.90;101699.72;5098432;28;20048;-66
2022/05/10 05:02:40;;;;;;;26.63;18.10;;;;;;;15.44;71.63;101695.19;5097949;28;20035;-66
2022/05/10 05:05:07;;;;;;;27.23;17.70;;;;;;;15.49;71.29;101693.34;5097804;28;20036;-66
2022/05/10 05:07:32;;;;;;;27.75;17.90;;;;;;;15.57;71.14;101702.88;5097835;28;20092;-66
2022/05/10 05:09:57;;;;;;;31.05;17.40;;;;;;;15.63;71.26;101705.38;5097976;28;20123;-65
2022/05/10 05:12:23;;;;;;;27.90;17.60;;;;;;;15.65;70.98;101698.31;5097990;28;20028;-66
2022/05/10 05:14:48;;;;;;;25.48;17.02;;;;;;;15.73;70.70;101705.19;5097962;28;20133;-67
2022/05/10 05:17:14;;;;;;;27.85;17.52;;;;;;;15.80;70.56;101706.78;5097451;28;20028;-66
2022/05/10 05:19:39;;;;;;;29.33;16.98;;;;;;;15.85;70.25;101705.81;5097654;28;20117;-65
2022/05/10 05:22:05;;;;;;;28.35;16.52;;;;;;;15.91;70.36;101703.03;5097647;28;20032;-65
2022/05/10 05:24:30;;;;;;;25.10;16.83;;;;;;;15.98;70.23;101698.47;5097670;28;20067;-65
2022/05/10 05:26:55;;;;;;;26.97;16.47;;;;;;;15.93;69.80;101695.09;5097596;28;20419;-65
2022/05/10 05:29:21;;;;;;;25.48;17.08;;;;;;;16.08;69.68;101705.31;5097389;28;20308;-66
2022/05/10 05:31:48;;;;;;;23.45;16.10;;;;;;;16.06;69.81;101696.56;5097485;28;20071;-66
2022/05/10 05:34:13;;;;;;;25.35;16.15;;;;;;;16.13;69.85;101697.25;5097572;28;20024;-58
2022/05/10 05:36:38;;;;;;;21.35;15.40;;;;;;;16.16;69.94;101690.16;5097261;28;20034;-63
2022/05/10 05:39:04;;;;;;;23.65;15.65;;;;;;;16.23;69.25;101702.31;5097091;28;20359;-66
2022/05/10 05:41:29;;;;;;;24.27;15.52;;;;;;;16.26;69.51;101701.38;5097422;28;20130;-67
2022/05/10 05:43:54;;;;;;;21.30;15.50;;;;;;;16.34;68.74;101702.06;5097387;28;20330;-67
2022/05/10 05:46:19;;;;;;;22.73;16.17;;;;;;;16.42;69.05;101704.53;5097237;28;20023;-67
2022/05/10 05:48:46;;;;;;;26.13;16.25;;;;;;;16.44;68.87;101697.44;5094065;28;20044;-67
2022/05/10 05:51:12;;;;;;;24.98;16.50;;;;;;;16.56;68.56;101698.00;5097039;28;20028;-66
2022/05/10 05:53:37;;;;;;;21.13;14.85;;;;;;;16.61;68.07;101685.56;5097606;28;20042;-67
2022/05/10 05:56:08;;;;;;;26.00;15.52;;;;;;;16.80;67.45;101693.03;5096852;28;20462;-66
2022/05/10 05:58:35;;;;;;;19.00;14.50;;;;;;;16.91;67.67;101694.50;5097108;28;20455;-68
2022/05/10 06:01:00;;;;;;;18.20;14.18;;;;;;;16.98;66.85;101685.47;5097202;28;20121;-63
2022/05/10 06:03:25;;;;;;;18.57;14.00;;;;;;;17.05;66.74;101684.44;5097033;28;20074;-59
2022/05/10 06:05:50;;;;;;;19.42;13.20;;;;;;;17.07;66.99;101663.22;5097146;28;20281;-66
2022/05/10 06:08:16;;;;;;;22.35;13.90;;;;;;;17.18;66.18;101671.72;5096949;28;20028;-68
2022/05/10 06:10:42;;;;;;;17.25;12.85;;;;;;;17.23;65.72;101674.25;5096901;28;20504;-67
2022/05/10 06:13:09;;;;;;;15.48;13.30;;;;;;;17.30;65.88;101676.69;5096763;28;20032;-67
2022/05/10 06:15:36;;;;;;;18.92;13.48;;;;;;;17.38;66.00;101676.47;5096533;28;20067;-67
2022/05/10 06:18:04;;;;;;;19.40;12.85;;;;;;;17.51;65.44;101674.34;5096455;28;20031;-67
2022/05/10 06:20:29;;;;;;;15.05;12.02;;;;;;;17.67;65.49;101680.94;5096483;28;20028;-67
2022/05/10 06:22:55;;;;;;;17.38;12.30;;;;;;;17.79;64.74;101677.09;5096527;28;20030;-67
2022/05/10 06:25:22;;;;;;;16.42;11.35;;;;;;;17.89;64.92;101682.06;5096477;28;20358;-67
2022/05/10 06:27:48;;;;;;;15.20;11.30;;;;;;;17.98;64.16;101667.69;5096674;28;20092;-67
2022/05/10 06:30:14;;;;;;;15.90;11.95;;;;;;;18.02;63.89;101672.81;5095928;28;20055;-67
2022/05/10 06:32:40;;;;;;;12.95;10.95;;;;;;;18.05;64.02;101671.84;5095929;28;20028;-67
2022/05/10 06:35:06;;;;;;;12.07;10.57;;;;;;;18.12;64.34;101670.75;5096140;28;20032;-67
2022/05/10 06:40:17;;;;;;;15.32;11.38;;;;;;;18.32;62.59;101671.00;5096757;28;20039;-67
2022/05/10 06:42:43;;;;;;;15.23;10.82;;;;;;;18.35;63.44;101668.25;5096313;28;20028;-67
2022/05/10 06:45:13;;;;;;;15.13;10.00;;;;;;;18.38;63.08;101667.25;5096241;28;20097;-67
2022/05/10 06:47:42;;;;;;;13.60;10.75;;;;;;;18.44;62.54;101662.63;5096195;28;20362;-67
2022/05/10 06:50:11;;;;;;;16.02;10.57;;;;;;;18.49;62.82;101662.50;5096118;28;20039;-67
2022/05/10 06:52:36;;;;;;;11.63;10.40;;;;;;;18.63;63.33;101665.56;5096066;28;20048;-67
2022/05/10 06:55:02;;;;;;;14.60;10.75;;;;;;;18.73;61.76;101661.69;5095662;28;20032;-67
2022/05/10 06:57:27;;;;;;;15.73;10.75;;;;;;;18.82;61.64;101660.50;5092278;28;20089;-67
2022/05/10 06:59:54;;;;;;;11.52;9.80;;;;;;;18.91;62.09;101654.88;5095428;28;20432;-67
2022/05/10 07:02:20;;;;;;;12.02;10.23;;;;;;;18.97;61.19;101659.97;5095743;28;20419;-67
2022/05/10 07:04:45;;;;;;;13.57;9.95;;;;;;;18.97;61.09;101656.47;5096409;28;20092;-67
2022/05/10 07:07:10;;;;;;;15.30;9.80;;;;;;;19.01;61.35;101650.13;5095663;28;20024;-67
2022/05/10 07:09:35;;;;;;;10.88;8.90;;;;;;;19.08;61.06;101652.50;5095666;28;20266;-67
2022/05/10 07:12:01;;;;;;;13.37;10.10;;;;;;;19.17;60.37;101646.00;5077557;28;20332;-67
2022/05/10 07:14:26;;;;;;;10.88;9.30;;;;;;;19.25;59.90;101635.09;5095300;28;20342;-66
2022/05/10 07:16:52;;;;;;;10.02;8.98;;;;;;;19.39;60.34;101643.44;5095651;28;20040;-67
2022/05/10 07:19:17;;;;;;;13.07;9.25;;;;;;;19.47;60.04;101631.59;5095511;28;20452;-67
2022/05/10 07:21:43;;;;;;;13.93;9.37;;;;;;;19.58;59.51;101633.84;5095495;28;20020;-67
2022/05/10 07:24:08;;;;;;;12.85;8.45;;;;;;;19.64;59.88;101630.97;5095488;28;20288;-67
2022/05/10 07:26:33;;;;;;;12.20;8.80;;;;;;;19.71;58.70;101627.19;5097867;28;20059;-66
2022/05/10 07:28:59;;;;;;;9.70;8.27;;;;;;;19.96;59.31;101629.72;5095090;28;20744;-67
2022/05/10 07:31:24;;;;;;;10.87;8.77;;;;;;;20.17;58.74;101630.66;5095196;28;20365;-66
2022/05/10 07:33:49;;;;;;;9.23;7.87;;;;;;;20.28;56.74;101630.19;5095349;28;20331;-66
2022/05/10 07:36:24;;;;;;;9.48;7.53;;;;;;;20.39;57.30;101626.22;5095234;28;20285;-63
2022/05/10 07:38:50;;;;;;;9.10;7.03;;;;;;;20.53;57.79;101624.78;5095089;28;20085;-66
2022/05/10 07:41:18;;;;;;;12.75;7.45;;;;;;;20.56;56.25;101619.31;5094550;28;20032;-67
2022/05/10 07:43:44;;;;;;;12.02;7.07;;;;;;;20.63;56.89;101624.31;5109102;28;20031;-65
2022/05/10 07:46:10;;;;;;;12.02;7.38;;;;;;;20.70;56.11;101623.13;5115300;28;20111;-65
2022/05/10 07:48:36;;;;;;;12.00;6.82;;;;;;;20.89;55.85;101617.88;5114996;28;20102;-66
2022/05/10 07:51:02;;;;;;;10.85;7.70;;;;;;;21.05;55.05;101621.56;5115185;28;20039;-65
2022/05/10 07:53:28;;;;;;;12.88;6.95;;;;;;;21.23;55.27;101613.72;5114940;28;20043;-65
2022/05/10 07:55:53;;;;;;;7.57;6.50;;;;;;;21.25;54.06;101610.06;5115403;28;20036;-65
2022/05/10 07:58:19;;;;;;;9.93;6.25;;;;;;;21.26;54.14;101610.94;5115260;28;20035;-65
2022/05/10 08:00:44;;;;;;;8.63;6.38;;;;;;;21.38;54.57;101619.22;5115294;28;20099;-65
2022/05/10 08:03:14;;;;;;;9.10;6.85;;;;;;;21.38;52.98;101624.53;5115277;28;20055;-63
2022/05/10 08:05:39;;;;;;;7.30;6.53;;;;;;;21.36;53.27;101613.09;5115036;28;20035;-64
2022/05/10 08:08:05;;;;;;;10.77;6.60;;;;;;;21.42;53.35;101625.28;5111425;28;20108;-63
2022/05/10 08:10:31;;;;;;;9.57;6.45;;;;;;;21.42;53.02;101612.81;5111939;28;20089;-63
2022/05/10 08:12:56;;;;;;;7.90;6.20;;;;;;;21.47;53.69;101604.63;5115308;28;20059;-63
2022/05/10 08:15:21;;;;;;;7.85;6.20;;;;;;;21.48;52.75;101611.66;5115172;28;20073;-63
2022/05/10 08:17:47;;;;;;;10.45;5.90;;;;;;;21.55;52.98;101613.09;5097277;28;20059;-63
2022/05/10 08:20:13;;;;;;;9.57;6.93;;;;;;;21.50;51.98;101618.63;5112149;28;20043;-64
2022/05/10 08:22:38;;;;;;;10.32;6.25;;;;;;;21.52;52.42;101611.44;5114894;28;20028;-64
2022/05/10 08:25:04;;;;;;;7.50;6.27;;;;;;;21.52;52.76;101607.91;5114897;28;20039;-64
2022/05/10 08:27:29;;;;;;;11.65;6.30;;;;;;;21.54;51.91;101606.91;5114663;28;20718;-64
2022/05/10 08:29:54;;;;;;;8.90;6.50;;;;;;;21.44;51.23;101607.44;5114549;28;20142;-63
2022/05/10 08:32:20;;;;;;;10.60;6.15;;;;;;;21.36;53.20;101606.91;5115126;28;20741;-63
2022/05/10 08:34:45;;;;;;;9.32;6.03;;;;;;;21.40;53.53;101588.06;5115201;28;20061;-59
2022/05/10 08:37:11;;;;;;;9.43;5.90;;;;;;;21.37;53.22;101593.53;5115063;28;20031;-66
2022/05/10 08:39:36;;;;;;;9.33;5.97;;;;;;;21.39;51.94;101601.44;5096769;28;20072;-66
2022/05/10 08:42:24;;;;;;;10.77;5.87;;;;;;;21.37;52.39;101597.97;5096611;28;20286;-66
2022/05/10 08:44:59;;;;;;;10.73;5.80;;;;;;;21.37;52.67;101601.50;5114782;28;20277;-66
2022/05/10 08:47:27;;;;;;;11.30;6.20;;;;;;;21.31;52.61;101593.78;5115014;28;20028;-66
2022/05/10 08:50:05;;;;;;;10.23;5.65;;;;;;;21.43;53.08;101584.41;5114836;28;20399;-66
2022/05/10 08:52:39;;;;;;;10.15;5.60;;;;;;;21.47;52.13;101584.16;5114804;28;20031;-67
2022/05/10 08:55:06;;;;;;;11.30;5.80;;;;;;;21.54;52.10;101582.06;5118590;28;20036;-66
2022/05/10 08:57:47;;;;;;;8.82;5.88;;;;;;;21.72;51.99;101580.34;5118599;28;20164;-66
2022/05/10 09:00:35;;;;;;;10.50;5.75;;;;;;;21.73;51.25;101590.94;5118739;28;20043;-66
2022/05/10 09:03:18;;;;;;;7.90;5.97;;;;;;;21.86;51.79;101580.53;5118281;28;20028;-66
2022/05/10 09:05:44;;;;;;;10.30;6.38;;;;;;;22.34;49.30;101579.09;5116413;28;20036;-67
2022/05/10 09:08:27;;;;;;;9.85;5.72;;;;;;;23.01;47.98;101584.47;5118357;28;20028;-66
2022/05/10 09:11:03;;;;;;;9.60;5.57;;;;;;;23.05;47.98;101583.34;5118260;28;20027;-66
2022/05/10 09:13:30;;;;;;;6.60;5.57;;;;;;;23.00;46.91;101574.75;5117913;28;20028;-66
2022/05/10 09:16:13;;;;;;;7.05;5.43;;;;;;;23.16;47.11;101591.66;5117958;28;20438;-66
2022/05/10 09:18:45;;;;;;;7.20;4.93;;;;;;;23.29;47.77;101566.94;5118369;28;20042;-66
2022/05/10 09:21:27;;;;;;;7.43;5.40;;;;;;;23.30;47.06;101566.00;5117811;28;20031;-66
2022/05/10 09:24:17;;;;;;;9.82;6.20;;;;;;;23.30;46.42;101555.31;5118056;28;20434;-66
2022/05/10 09:26:53;;;;;;;10.90;6.15;;;;;;;23.25;46.98;101564.44;5117414;28;20089;-67
2022/05/10 09:29:32;;;;;;;7.97;5.40;;;;;;;23.30;47.47;101564.19;5117875;28;20105;-66
2022/05/10 09:34:54;;;;;;;7.68;5.78;;;;;;;23.35;46.94;101558.63;5117841;28;20096;-66
2022/05/10 09:37:37;;;;;;;7.80;5.90;;;;;;;23.48;47.14;101552.50;5117956;28;20035;-66
2022/05/10 09:40:12;;;;;;;7.78;5.53;;;;;;;23.41;46.42;101550.22;5117133;28;20518;-66
2022/05/10 09:42:44;;;;;;;11.27;6.20;;;;;;;23.40;46.19;101546.69;5117898;28;20039;-66
2022/05/10 09:45:26;;;;;;;;;;;;;;;23.60;46.01;101556.31;5118138;28;20050;-66
2022/05/10 09:48:08;;;;;;;9.05;5.60;;;;;;;23.43;47.01;101556.34;5117937;28;19922;-66
2022/05/10 09:50:42;;;;;;;8.77;6.22;;;;;;;23.37;46.71;101549.56;5118341;28;20450;-66
2022/05/10 09:53:12;;;;;;;8.05;5.82;;;;;;;23.37;46.90;101548.72;5117484;28;20419;-66
2022/05/10 09:55:39;;;;;;;7.57;5.72;;;;;;;23.50;47.58;101552.41;5117731;28;20035;-66
2022/05/10 09:58:17;;;;;;;7.93;5.88;;;;;;;23.68;46.22;101540.72;5117585;28;20028;-66
2022/05/10 10:00:54;;;;;;;9.55;6.07;;;;;;;23.73;46.22;101541.28;5117583;28;20084;-66
2022/05/10 10:03:26;;;;;;;6.68;5.45;;;;;;;23.86;46.35;101539.66;5117628;28;20035;-66
2022/05/10 10:05:54;;;;;;;9.90;5.85;;;;;;;24.00;45.90;101528.16;5116502;28;20110;-66
2022/05/10 10:08:36;;;;;;;8.75;5.45;;;;;;;24.19;46.88;101528.81;5117566;28;20107;-66
2022/05/10 10:11:01;;;;;;;8.50;5.55;;;;;;;24.27;45.22;101525.69;5117370;28;20122;-66
2022/05/10 10:13:33;;;;;;;6.57;5.23;;;;;;;24.46;45.29;101517.41;5117490;28;20935;-66
2022/05/10 10:16:00;;;;;;;9.73;5.95;;;;;;;24.57;45.58;101514.97;5117268;28;20681;-66
2022/05/10 10:18:47;;;;;;;7.38;5.00;;;;;;;24.62;44.60;101524.41;5117205;28;20034;-66
2022/05/10 10:21:19;;;;;;;9.70;5.20;;;;;;;24.89;43.63;101516.50;5117353;28;20380;-66
2022/05/10 10:23:50;;;;;;;8.20;5.10;;;;;;;25.09;42.08;101507.25;5116845;28;20028;-66
2022/05/10 10:26:40;;;;;;;8.32;4.85;;;;;;;25.32;41.98;101506.63;5116862;28;20031;-66
2022/05/10 10:29:10;;;;;;;11.25;4.95;;;;;;;25.38;41.91;101507.19;5116880;28;20051;-66
2022/05/10 10:31:55;;;;;;;13.23;5.13;;;;;;;25.42;40.65;101517.63;5117446;28;20066;-66
2022/05/10 10:34:31;;;;;;;9.20;5.43;;;;;;;25.33;39.82;101504.81;5116682;28;20039;-66
2022/05/10 10:37:04;;;;;;;9.77;4.50;;;;;;;25.43;40.71;101507.75;5116853;28;20027;-66
2022/05/10 10:39:43;;;;;;;8.02;4.32;;;;;;;25.69;40.53;101504.25;5116731;28;20047;-66
2022/05/10 10:42:13;;;;;;;8.60;4.85;;;;;;;25.76;39.06;101496.69;5116647;28;20330;-66
2022/05/10 10:44:44;;;;;;;12.35;5.15;;;;;;;25.81;38.25;101511.47;5116307;28;20043;-66
2022/05/10 10:47:22;;;;;;;9.02;4.93;;;;;;;25.86;38.97;101490.59;5116586;28;20100;-66
2022/05/10 10:49:57;;;;;;;14.40;4.95;;;;;;;25.90;38.36;101504.66;5116348;28;20107;-66
2022/05/10 10:52:23;;;;;;;9.93;5.07;;;;;;;25.63;38.10;101512.69;5116697;28;20034;-68
2022/05/10 10:54:48;;;;;;;12.23;5.43;;;;;;;25.57;38.70;101502.34;5116202;28;20036;-66
2022/05/10 10:57:45;;;;;;;10.02;5.13;;;;;;;25.65;38.72;101500.91;5116127;28;20039;-65
2022/05/10 11:00:28;;;;;;;10.55;5.32;;;;;;;25.48;38.57;101492.22;5116493;28;20035;-65
2022/05/10 11:03:00;;;;;;;14.07;6.10;;;;;;;25.23;38.81;101491.16;5116310;28;20037;-66
2022/05/10 11:05:53;;;;;;;12.98;5.47;;;;;;;25.24;39.10;101489.34;5115875;28;20031;-66
2022/05/10 11:08:41;;;;;;;9.32;5.55;;;;;;;25.41;39.28;101486.44;5116061;28;20161;-66
2022/05/10 11:11:37;;;;;;;12.00;5.75;;;;;;;25.35;39.04;101472.56;5116206;28;20114;-66
2022/05/10 11:14:21;;;;;;;8.88;5.10;;;;;;;25.31;39.78;101464.72;5115871;28;20031;-66
2022/05/10 11:17:08;;;;;;;11.45;5.32;;;;;;;25.34;39.38;101471.69;5115813;28;20046;-66
2022/05/10 11:19:55;;;;;;;10.77;5.30;;;;;;;25.04;39.05;101466.50;5116099;28;20050;-66
2022/05/10 11:22:23;;;;;;;6.57;4.90;;;;;;;24.86;39.05;101459.59;5115999;28;20457;-66
2022/05/10 11:25:37;;;;;;;15.05;5.80;;;;;;;24.93;39.79;101466.31;5115781;28;20357;-65
2022/05/10 11:28:11;;;;;;;11.38;5.32;;;;;;;24.99;40.32;101471.28;5115999;28;20031;-66
2022/05/10 11:30:57;;;;;;;15.80;6.30;;;;;;;25.29;39.97;101471.97;5115554;28;20375;-66
2022/05/10 11:33:37;;;;;;;9.38;5.25;;;;;;;25.48;39.11;101454.69;5116070;28;20035;-65
2022/05/10 11:36:23;;;;;;;7.68;5.00;;;;;;;25.86;39.76;101450.34;5115553;28;20027;-66
2022/05/10 11:39:15;;;;;;;9.27;5.03;;;;;;;25.96;39.62;101459.53;5115066;28;20039;-60
2022/05/10 11:41:51;;;;;;;8.90;5.80;;;;;;;25.94;39.17;101453.41;5115897;28;20059;-64
2022/05/10 11:44:29;;;;;;;26.60;5.75;;;;;;;25.83;39.10;101455.06;5116020;28;20038;-65
2022/05/10 11:47:28;;;;;;;7.95;6.00;;;;;;;25.60;39.14;101437.81;5115737;28;20403;-65